createdAt,value
2019-01-16T00:00:16.747Z,26.50
2019-01-16T00:03:15.846Z,37.03
2019-01-16T00:06:07.372Z,32.53
2019-01-16T00:08:59.122Z,26.70
2019-01-16T00:11:55.268Z,22.02
2019-01-16T00:14:46.035Z,27.50
2019-01-16T00:17:49.063Z,25.57
2019-01-16T00:20:42.577Z,27.82
2019-01-16T00:23:38.145Z,27.15
2019-01-16T00:26:27.109Z,19.85
2019-01-16T00:29:35.055Z,22.85
2019-01-16T00:32:25.743Z,28.62
2019-01-16T00:35:15.693Z,25.80
2019-01-16T00:38:04.673Z,21.40
2019-01-16T00:41:04.434Z,28.02
2019-01-16T00:44:06.640Z,27.42
2019-01-16T00:47:03.326Z,27.07
2019-01-16T00:49:55.677Z,23.10
2019-01-16T00:53:01.879Z,30.72
2019-01-16T00:55:54.751Z,17.65
2019-01-16T00:58:47.986Z,22.10
2019-01-16T01:01:38.432Z,21.90
2019-01-16T01:04:44.933Z,23.57
2019-01-16T01:07:44.073Z,16.42
2019-01-16T01:10:39.882Z,24.65
2019-01-16T01:13:33.324Z,29.75
2019-01-16T01:16:23.547Z,19.50
2019-01-16T01:19:16.773Z,18.52
2019-01-16T01:22:07.552Z,22.58
2019-01-16T01:25:12.916Z,24.63
2019-01-16T01:28:21.138Z,20.30
2019-01-16T01:31:20.421Z,18.85
2019-01-16T01:34:21.495Z,17.23
2019-01-16T01:37:12.370Z,22.25
2019-01-16T01:40:05.702Z,23.05
2019-01-16T01:43:07.881Z,26.00
2019-01-16T01:46:04.994Z,21.70
2019-01-16T01:48:58.190Z,28.83
2019-01-16T01:51:48.528Z,20.75
2019-01-16T01:54:38.559Z,25.85
2019-01-16T01:57:31.595Z,24.90
2019-01-16T02:00:37.844Z,23.42
2019-01-16T02:03:26.510Z,29.25
2019-01-16T02:06:19.428Z,31.37
2019-01-16T02:09:25.335Z,24.47
2019-01-16T02:12:31.803Z,25.40
2019-01-16T02:15:24.701Z,26.15
2019-01-16T02:18:20.615Z,23.27
2019-01-16T02:21:17.214Z,26.23
2019-01-16T02:24:05.632Z,32.10
2019-01-16T02:27:12.500Z,36.65
2019-01-16T02:30:17.425Z,35.40
2019-01-16T02:33:19.942Z,29.67
2019-01-16T02:36:25.827Z,28.25
2019-01-16T02:39:14.225Z,27.42
2019-01-16T02:42:21.527Z,24.50
2019-01-16T02:45:27.831Z,32.10
2019-01-16T02:48:18.195Z,30.15
2019-01-16T02:51:24.226Z,30.55
2019-01-16T02:54:20.258Z,29.25
2019-01-16T02:57:13.711Z,26.57
2019-01-16T03:00:09.459Z,31.07
2019-01-16T03:03:09.096Z,27.05
2019-01-16T03:06:01.990Z,32.80
2019-01-16T03:08:55.527Z,29.42
2019-01-16T03:12:02.497Z,25.43
2019-01-16T03:14:52.951Z,27.60
2019-01-16T03:17:45.591Z,28.73
2019-01-16T03:20:36.195Z,28.90
2019-01-16T03:23:29.650Z,26.70
2019-01-16T03:26:28.778Z,25.40
2019-01-16T03:29:19.321Z,32.80
2019-01-16T03:32:09.982Z,28.87
2019-01-16T03:35:00.186Z,30.02
2019-01-16T03:37:52.892Z,31.68
2019-01-16T03:40:55.433Z,31.33
2019-01-16T03:43:48.432Z,25.37
2019-01-16T03:46:44.165Z,27.32
2019-01-16T03:49:32.581Z,27.42
2019-01-16T03:52:23.011Z,26.12
2019-01-16T03:55:13.041Z,30.52
2019-01-16T03:58:12.527Z,30.85
2019-01-16T04:01:18.891Z,25.05
2019-01-16T04:04:09.188Z,24.27
2019-01-16T04:07:11.249Z,24.43
2019-01-16T04:10:10.501Z,22.93
2019-01-16T04:13:12.496Z,27.70
2019-01-16T04:16:03.358Z,25.55
2019-01-16T04:18:54.279Z,22.85
2019-01-16T04:21:53.416Z,29.57
2019-01-16T04:24:44.242Z,22.10
2019-01-16T04:27:34.158Z,27.48
2019-01-16T04:30:25.432Z,26.97
2019-01-16T04:33:18.901Z,25.15
2019-01-16T04:36:09.534Z,23.32
2019-01-16T04:39:00.096Z,21.27
2019-01-16T04:41:50.812Z,31.50
2019-01-16T04:44:44.008Z,24.32
2019-01-16T04:47:40.443Z,27.10
2019-01-16T04:50:31.021Z,35.58
2019-01-16T04:53:21.531Z,29.52
2019-01-16T04:56:11.688Z,28.65
2019-01-16T04:59:10.912Z,22.65
2019-01-16T05:02:13.135Z,30.72
2019-01-16T05:05:06.115Z,27.87
2019-01-16T05:08:05.454Z,29.40
2019-01-16T05:10:55.355Z,28.50
2019-01-16T05:13:51.794Z,27.27
2019-01-16T05:16:44.899Z,30.08
2019-01-16T05:19:38.675Z,30.82
2019-01-16T05:22:44.036Z,36.68
2019-01-16T05:25:40.483Z,29.98
2019-01-16T05:28:33.288Z,28.92
2019-01-16T05:31:41.415Z,29.72
2019-01-16T05:34:29.928Z,26.80
2019-01-16T05:37:37.793Z,34.70
2019-01-16T05:40:42.891Z,29.45
2019-01-16T05:43:33.109Z,27.00
2019-01-16T05:46:38.424Z,26.77
2019-01-16T05:49:31.750Z,28.25
2019-01-16T05:52:22.469Z,29.15
2019-01-16T05:55:24.728Z,35.70
2019-01-16T05:58:15.564Z,34.53
2019-01-16T06:01:08.180Z,33.02
2019-01-16T06:04:08.759Z,32.75
2019-01-16T06:07:14.936Z,35.10
2019-01-16T06:10:07.289Z,27.25
2019-01-16T06:13:12.421Z,26.55
2019-01-16T06:16:00.972Z,31.75
2019-01-16T06:18:51.339Z,35.08
2019-01-16T06:21:50.034Z,33.25
2019-01-16T06:24:46.195Z,27.05
2019-01-16T06:28:01.135Z,32.00
2019-01-16T06:30:51.666Z,35.15
2019-01-16T06:34:00.013Z,35.10
2019-01-16T06:36:50.801Z,34.38
2019-01-16T06:39:43.501Z,32.33
2019-01-16T06:42:43.036Z,44.00
2019-01-16T06:45:35.825Z,35.63
2019-01-16T06:48:25.799Z,40.83
2019-01-16T06:51:19.016Z,43.80
2019-01-16T06:54:09.355Z,37.05
2019-01-16T06:57:00.073Z,42.58
2019-01-16T06:59:56.023Z,41.95
2019-01-16T07:02:46.240Z,45.45
2019-01-16T07:05:43.103Z,42.55
2019-01-16T07:08:36.566Z,47.03
2019-01-16T07:11:26.695Z,40.43
2019-01-16T07:14:19.489Z,40.75
2019-01-16T07:17:07.924Z,40.75
2019-01-16T07:19:58.201Z,40.38
2019-01-16T07:22:48.277Z,40.90
2019-01-16T07:25:48.700Z,35.10
2019-01-16T07:28:51.095Z,35.83
2019-01-16T07:31:53.389Z,37.55
2019-01-16T07:34:50.026Z,41.70
2019-01-16T07:37:41.654Z,35.65
2019-01-16T07:40:34.677Z,45.03
2019-01-16T07:43:27.480Z,37.90
2019-01-16T07:46:17.717Z,35.40
2019-01-16T07:49:08.158Z,41.77
2019-01-16T07:52:04.527Z,36.42
2019-01-16T07:55:12.730Z,29.63
2019-01-16T07:58:18.836Z,37.28
2019-01-16T08:01:24.569Z,32.55
2019-01-16T08:04:20.676Z,51.30
2019-01-16T08:07:23.051Z,39.90
2019-01-16T08:10:30.241Z,33.15
2019-01-16T08:13:20.583Z,31.57
2019-01-16T08:16:22.901Z,31.05
2019-01-16T08:19:16.905Z,27.40
2019-01-16T08:22:09.629Z,28.23
2019-01-16T08:25:02.881Z,30.85
2019-01-16T08:28:11.013Z,33.13
2019-01-16T08:31:01.706Z,26.35
2019-01-16T08:33:57.591Z,27.07
2019-01-16T08:36:53.727Z,23.70
2019-01-16T08:39:44.495Z,27.58
2019-01-16T08:42:40.103Z,35.38
2019-01-16T08:45:48.810Z,27.55
2019-01-16T08:48:57.553Z,25.80
2019-01-16T08:51:58.000Z,25.17
2019-01-16T08:54:51.369Z,23.62
2019-01-16T08:57:47.321Z,30.05
2019-01-16T09:00:37.751Z,23.12
2019-01-16T09:03:43.664Z,21.97
2019-01-16T09:06:49.837Z,27.13
2019-01-16T09:09:50.177Z,21.95
2019-01-16T09:12:56.815Z,27.30
2019-01-16T09:15:49.454Z,19.02
2019-01-16T09:18:47.952Z,26.68
2019-01-16T09:21:41.254Z,20.95
2019-01-16T09:24:37.228Z,21.73
2019-01-16T09:27:43.623Z,22.98
2019-01-16T09:30:36.960Z,21.87
2019-01-16T09:33:30.269Z,20.77
2019-01-16T09:36:23.575Z,18.87
2019-01-16T09:39:14.371Z,26.65
2019-01-16T09:42:04.931Z,22.90
2019-01-16T09:44:53.346Z,17.95
2019-01-16T09:47:50.382Z,20.25
2019-01-16T09:50:47.650Z,16.70
2019-01-16T09:53:32.644Z,15.80
2019-01-16T09:56:25.665Z,17.07
2019-01-16T09:59:16.007Z,18.37
2019-01-16T10:02:06.771Z,18.48
2019-01-16T10:05:05.747Z,15.45
2019-01-16T10:08:02.067Z,17.10
2019-01-16T10:10:58.444Z,17.67
2019-01-16T10:13:51.702Z,18.50
2019-01-16T10:16:44.904Z,15.60
2019-01-16T10:19:51.401Z,15.03
2019-01-16T10:22:47.926Z,16.07
2019-01-16T10:25:44.316Z,17.82
2019-01-16T10:28:34.455Z,21.20
2019-01-16T10:31:24.678Z,20.40
2019-01-16T10:34:17.758Z,18.65
2019-01-16T10:37:26.249Z,16.05
2019-01-16T10:40:25.636Z,17.60
2019-01-16T10:43:16.569Z,20.75
2019-01-16T10:46:18.461Z,18.27
2019-01-16T10:49:23.267Z,20.23
2019-01-16T10:52:13.411Z,20.40
2019-01-16T10:55:15.287Z,20.10
2019-01-16T10:58:08.076Z,19.67
2019-01-16T11:00:58.388Z,22.10
2019-01-16T11:03:57.347Z,22.50
2019-01-16T11:07:03.835Z,23.73
2019-01-16T11:10:05.819Z,23.80
2019-01-16T11:12:58.657Z,23.85
2019-01-16T11:16:04.418Z,26.93
2019-01-16T11:19:09.017Z,21.77
2019-01-16T11:22:08.216Z,23.98
2019-01-16T11:25:10.916Z,26.15
2019-01-16T11:28:18.572Z,25.02
2019-01-16T11:31:25.792Z,25.70
2019-01-16T11:34:16.430Z,24.77
2019-01-16T11:37:07.126Z,27.17
2019-01-16T11:40:04.807Z,27.65
2019-01-16T11:43:09.572Z,27.60
2019-01-16T11:45:59.821Z,25.62
2019-01-16T11:48:50.289Z,29.50
2019-01-16T11:51:40.185Z,27.07
2019-01-16T11:54:45.334Z,28.65
2019-01-16T11:57:35.659Z,32.67
2019-01-16T12:00:26.176Z,26.48
2019-01-16T12:03:31.774Z,24.10
2019-01-16T12:06:38.409Z,27.52
2019-01-16T12:09:44.565Z,24.00
2019-01-16T12:12:37.755Z,23.62
2019-01-16T12:15:28.657Z,27.22
2019-01-16T12:18:18.842Z,24.80
2019-01-16T12:21:26.566Z,26.45
2019-01-16T12:24:26.589Z,22.90
2019-01-16T12:27:17.165Z,21.80
2019-01-16T12:30:14.925Z,25.35
2019-01-16T12:33:14.687Z,22.07
2019-01-16T12:36:13.759Z,24.92
2019-01-16T12:39:04.056Z,22.42
2019-01-16T12:42:11.953Z,23.60
2019-01-16T12:45:18.007Z,23.07
2019-01-16T12:48:10.505Z,24.52
2019-01-16T12:51:09.222Z,23.87
2019-01-16T12:54:15.573Z,25.75
2019-01-16T12:57:20.743Z,23.45
2019-01-16T13:00:18.439Z,27.07
2019-01-16T13:03:24.291Z,22.20
2019-01-16T13:06:32.323Z,24.02
2019-01-16T13:09:29.579Z,21.42
2019-01-16T13:12:29.060Z,20.82
2019-01-16T13:15:22.919Z,21.40
2019-01-16T13:18:16.311Z,23.95
2019-01-16T13:21:23.255Z,21.05
2019-01-16T13:24:25.270Z,22.55
2019-01-16T13:27:21.638Z,19.42
2019-01-16T13:30:29.145Z,21.57
2019-01-16T13:33:22.121Z,21.70
2019-01-16T13:36:14.983Z,16.85
2019-01-16T13:39:12.705Z,21.65
2019-01-16T13:42:18.153Z,18.50
2019-01-16T13:45:22.850Z,16.97
2019-01-16T13:48:16.405Z,17.92
2019-01-16T13:51:12.016Z,17.90
2019-01-16T13:54:11.353Z,14.68
2019-01-16T13:57:01.383Z,18.90
2019-01-16T13:59:51.818Z,18.20
2019-01-16T14:02:41.834Z,15.68
2019-01-16T14:05:35.160Z,16.35
2019-01-16T14:08:37.189Z,16.23
2019-01-16T14:11:26.116Z,12.03
2019-01-16T14:14:25.059Z,12.93
2019-01-16T14:17:18.013Z,12.33
2019-01-16T14:20:13.034Z,12.75
2019-01-16T14:23:03.004Z,12.03
2019-01-16T14:26:08.528Z,11.25
2019-01-16T14:29:14.808Z,10.88
2019-01-16T14:32:16.649Z,12.15
2019-01-16T14:35:12.062Z,11.10
2019-01-16T14:38:20.303Z,12.45
2019-01-16T14:41:12.836Z,10.50
2019-01-16T14:44:21.437Z,11.12
2019-01-16T14:47:09.976Z,11.03
2019-01-16T14:50:00.787Z,12.43
2019-01-16T14:52:53.827Z,10.30
2019-01-16T14:55:56.559Z,14.90
2019-01-16T14:58:49.796Z,12.40
2019-01-16T15:01:57.618Z,9.70
2019-01-16T15:04:56.563Z,12.35
2019-01-16T15:07:58.571Z,10.72
2019-01-16T15:11:04.953Z,14.35
2019-01-16T15:14:04.315Z,13.68
2019-01-16T15:17:09.986Z,13.35
2019-01-16T15:20:12.449Z,15.45
2019-01-16T15:23:02.809Z,12.10
2019-01-16T15:26:04.527Z,15.45
2019-01-16T15:29:00.703Z,13.75
2019-01-16T15:32:08.723Z,12.60
2019-01-16T15:35:15.426Z,10.53
2019-01-16T15:38:22.303Z,12.18
2019-01-16T15:41:31.222Z,10.40
2019-01-16T15:44:24.610Z,12.50
2019-01-16T15:47:17.443Z,15.05
2019-01-16T15:50:11.846Z,16.00
2019-01-16T15:53:07.428Z,13.20
2019-01-16T15:56:03.516Z,14.20
2019-01-16T15:58:59.411Z,16.10
2019-01-16T16:01:56.018Z,13.48
2019-01-16T16:04:46.067Z,16.17
2019-01-16T16:07:36.473Z,15.90
2019-01-16T16:10:41.849Z,10.35
2019-01-16T16:13:37.907Z,14.73
2019-01-16T16:16:30.533Z,16.82
2019-01-16T16:19:29.484Z,22.20
2019-01-16T16:22:20.030Z,19.00
2019-01-16T16:25:08.648Z,16.75
2019-01-16T16:27:58.982Z,17.10
2019-01-16T16:30:50.257Z,17.27
2019-01-16T16:33:45.983Z,23.05
2019-01-16T16:36:34.588Z,16.87
2019-01-16T16:39:27.789Z,19.98
2019-01-16T16:42:18.758Z,21.30
2019-01-16T16:45:29.018Z,21.97
2019-01-16T16:48:19.173Z,27.13
2019-01-16T16:51:21.624Z,25.45
2019-01-16T16:54:14.188Z,25.80
2019-01-16T16:57:19.569Z,19.57
2019-01-16T17:00:13.942Z,25.88
2019-01-16T17:03:06.824Z,28.38
2019-01-16T17:05:57.579Z,27.40
2019-01-16T17:08:59.210Z,32.23
2019-01-16T17:11:53.807Z,28.40
2019-01-16T17:14:44.353Z,30.02
2019-01-16T17:17:34.703Z,36.48
2019-01-16T17:20:40.998Z,32.35
2019-01-16T17:23:35.496Z,36.23
2019-01-16T17:26:25.668Z,31.23
2019-01-16T17:29:30.835Z,32.95
2019-01-16T17:32:36.972Z,37.13
2019-01-16T17:35:29.808Z,30.65
2019-01-16T17:38:29.322Z,30.17
2019-01-16T17:41:24.980Z,37.67
2019-01-16T17:44:14.952Z,30.62
2019-01-16T17:47:21.779Z,29.40
2019-01-16T17:50:19.070Z,32.93
2019-01-16T17:53:09.922Z,32.75
2019-01-16T17:56:07.269Z,31.87
2019-01-16T17:58:57.839Z,29.35
2019-01-16T18:01:54.141Z,35.52
2019-01-16T18:05:00.570Z,32.10
2019-01-16T18:08:06.590Z,26.00
2019-01-16T18:10:57.063Z,32.98
2019-01-16T18:13:52.639Z,32.78
2019-01-16T18:16:59.010Z,28.77
2019-01-16T18:19:54.598Z,27.73
2019-01-16T18:22:45.221Z,31.62
2019-01-16T18:25:41.330Z,29.15
2019-01-16T18:28:32.164Z,23.35
2019-01-16T18:31:22.197Z,31.33
2019-01-16T18:34:21.119Z,25.65
2019-01-16T18:37:17.658Z,27.37
2019-01-16T18:40:12.620Z,26.05
2019-01-16T18:43:01.469Z,29.27
2019-01-16T18:46:07.614Z,25.05
2019-01-16T18:48:57.700Z,20.35
2019-01-16T18:52:02.271Z,21.33
2019-01-16T18:54:52.522Z,22.85
2019-01-16T18:57:51.912Z,19.45
2019-01-16T19:00:53.745Z,22.45
2019-01-16T19:03:47.175Z,27.80
2019-01-16T19:06:48.834Z,24.10
2019-01-16T19:09:41.487Z,24.23
2019-01-16T19:12:30.358Z,20.70
2019-01-16T19:15:20.993Z,21.10
2019-01-16T19:18:20.031Z,22.62
2019-01-16T19:21:10.159Z,19.73
2019-01-16T19:24:00.938Z,25.08
2019-01-16T19:26:56.623Z,24.27
2019-01-16T19:29:52.950Z,20.85
2019-01-16T19:32:46.719Z,26.70
2019-01-16T19:35:42.324Z,27.13
2019-01-16T19:38:48.201Z,29.07
2019-01-16T19:41:39.744Z,23.73
2019-01-16T19:44:42.031Z,26.30
2019-01-16T19:47:32.762Z,33.25
2019-01-16T19:50:25.579Z,27.42
2019-01-16T19:53:19.232Z,26.90
2019-01-16T19:56:09.843Z,25.37
2019-01-16T19:59:00.482Z,32.08
2019-01-16T20:02:08.535Z,35.48
2019-01-16T20:05:13.957Z,28.95
2019-01-16T20:08:20.080Z,30.12
2019-01-16T20:11:21.933Z,25.17
2019-01-16T20:14:12.016Z,26.60
2019-01-16T20:17:01.930Z,30.15
2019-01-16T20:19:52.103Z,32.90
2019-01-16T20:22:58.447Z,36.85
2019-01-16T20:25:55.524Z,29.30
2019-01-16T20:29:00.949Z,28.17
2019-01-16T20:31:51.532Z,30.43
2019-01-16T20:34:44.802Z,29.27
2019-01-16T20:37:35.016Z,29.20
2019-01-16T20:40:27.959Z,28.27
2019-01-16T20:43:28.004Z,27.50
2019-01-16T20:46:24.527Z,31.70
2019-01-16T20:49:31.197Z,29.48
2019-01-16T20:52:37.010Z,30.12
2019-01-16T20:55:30.044Z,30.65
2019-01-16T20:58:20.231Z,30.88
2019-01-16T21:01:26.039Z,27.77
2019-01-16T21:04:32.070Z,30.77
2019-01-16T21:07:22.568Z,28.35
2019-01-16T21:10:15.370Z,25.70
2019-01-16T21:13:10.687Z,27.37
2019-01-16T21:16:07.042Z,30.30
2019-01-16T21:19:06.142Z,32.88
2019-01-16T21:22:14.009Z,51.63
2019-01-16T21:25:02.227Z,61.80
2019-01-16T21:28:01.702Z,24.57
2019-01-16T21:31:01.198Z,33.28
2019-01-16T21:33:57.368Z,30.72
2019-01-16T21:36:48.005Z,30.92
2019-01-16T21:39:53.883Z,28.62
2019-01-16T21:42:46.935Z,30.08
2019-01-16T21:45:53.000Z,31.15
2019-01-16T21:49:01.057Z,31.07
2019-01-16T21:51:51.109Z,23.30
2019-01-16T21:54:41.620Z,27.60
2019-01-16T21:57:34.298Z,25.10
2019-01-16T22:00:25.026Z,31.48
2019-01-16T22:03:17.718Z,30.90
2019-01-16T22:06:24.574Z,30.60
2019-01-16T22:09:30.687Z,26.02
2019-01-16T22:12:21.336Z,24.52
2019-01-16T22:15:23.634Z,29.45
2019-01-16T22:18:16.943Z,28.27
2019-01-16T22:21:14.078Z,28.98
2019-01-16T22:24:02.963Z,28.35
2019-01-16T22:26:53.578Z,29.30
2019-01-16T22:29:52.891Z,26.93
2019-01-16T22:32:58.990Z,25.02
2019-01-16T22:35:55.432Z,34.85
2019-01-16T22:38:51.131Z,32.45
2019-01-16T22:41:41.487Z,29.48
2019-01-16T22:44:31.769Z,34.13
2019-01-16T22:47:30.151Z,28.32
2019-01-16T22:50:23.132Z,38.45
2019-01-16T22:53:28.214Z,29.63
2019-01-16T22:56:35.077Z,30.77
2019-01-16T22:59:25.246Z,38.00
2019-01-16T23:02:27.336Z,30.00
2019-01-16T23:05:29.647Z,34.45
2019-01-16T23:08:19.915Z,27.93
2019-01-16T23:11:11.599Z,30.43
2019-01-16T23:14:13.640Z,33.80
2019-01-16T23:17:13.035Z,29.25
2019-01-16T23:20:19.678Z,31.25
2019-01-16T23:23:21.677Z,33.18
2019-01-16T23:26:14.293Z,35.63
2019-01-16T23:29:16.299Z,37.53
2019-01-16T23:32:04.445Z,33.40
2019-01-16T23:34:55.398Z,32.25
2019-01-16T23:38:01.679Z,35.15
2019-01-16T23:40:51.753Z,38.15
2019-01-16T23:43:47.442Z,34.73
2019-01-16T23:46:40.807Z,37.00
2019-01-16T23:49:33.767Z,28.75
2019-01-16T23:52:24.158Z,32.48
2019-01-16T23:55:20.575Z,28.00
2019-01-16T23:58:28.780Z,33.67
